sensor_id;sensor_type;location;lat;lon;timestamp;temperature;humidity
20319;DHT22;10317;47.254;11.314;2023-11-18T00:01:31;4.10;99.90
20319;DHT22;10317;47.254;11.314;2023-11-18T00:03:56;4.00;99.90
20319;DHT22;10317;47.254;11.314;2023-11-18T00:06:22;4.00;99.90
20319;DHT22;10317;47.254;11.314;2023-11-18T00:08:48;4.00;99.90
20319;DHT22;10317;47.254;11.314;2023-11-18T00:11:14;4.00;99.90
20319;DHT22;10317;47.254;11.314;2023-11-18T00:13:39;4.00;99.90
20319;DHT22;10317;47.254;11.314;2023-11-18T00:16:09;3.90;99.90
20319;DHT22;10317;47.254;11.314;2023-11-18T00:18:40;4.00;99.90
20319;DHT22;10317;47.254;11.314;2023-11-18T00:21:06;3.90;99.90
20319;DHT22;10317;47.254;11.314;2023-11-18T00:23:35;3.90;99.90
20319;DHT22;10317;47.254;11.314;2023-11-18T00:26:01;3.90;99.90
20319;DHT22;10317;47.254;11.314;2023-11-18T00:28:27;3.90;99.90
20319;DHT22;10317;47.254;11.314;2023-11-18T00:30:53;3.90;99.90
20319;DHT22;10317;47.254;11.314;2023-11-18T00:33:19;4.00;99.90
20319;DHT22;10317;47.254;11.314;2023-11-18T00:35:44;3.90;99.90
20319;DHT22;10317;47.254;11.314;2023-11-18T00:38:11;4.00;99.90
20319;DHT22;10317;47.254;11.314;2023-11-18T00:40:37;4.00;99.90
20319;DHT22;10317;47.254;11.314;2023-11-18T00:43:02;4.00;99.90
20319;DHT22;10317;47.254;11.314;2023-11-18T00:45:28;4.00;99.90
20319;DHT22;10317;47.254;11.314;2023-11-18T00:47:54;4.00;99.90
20319;DHT22;10317;47.254;11.314;2023-11-18T00:50:20;4.00;99.90
20319;DHT22;10317;47.254;11.314;2023-11-18T00:52:46;4.00;99.90
20319;DHT22;10317;47.254;11.314;2023-11-18T00:55:15;4.00;99.90
20319;DHT22;10317;47.254;11.314;2023-11-18T00:57:44;4.00;99.90
20319;DHT22;10317;47.254;11.314;2023-11-18T01:00:14;4.00;99.90
20319;DHT22;10317;47.254;11.314;2023-11-18T01:02:42;4.00;99.90
20319;DHT22;10317;47.254;11.314;2023-11-18T01:05:09;4.00;99.90
20319;DHT22;10317;47.254;11.314;2023-11-18T01:07:37;4.00;99.90
20319;DHT22;10317;47.254;11.314;2023-11-18T01:10:03;4.00;99.90
20319;DHT22;10317;47.254;11.314;2023-11-18T01:12:29;4.00;99.90
20319;DHT22;10317;47.254;11.314;2023-11-18T01:14:54;4.00;99.90
20319;DHT22;10317;47.254;11.314;2023-11-18T01:17:20;4.00;99.90
20319;DHT22;10317;47.254;11.314;2023-11-18T01:19:47;4.00;99.90
20319;DHT22;10317;47.254;11.314;2023-11-18T01:22:13;4.00;99.90
20319;DHT22;10317;47.254;11.314;2023-11-18T01:24:39;4.00;99.90
20319;DHT22;10317;47.254;11.314;2023-11-18T01:27:04;4.00;99.90
20319;DHT22;10317;47.254;11.314;2023-11-18T01:29:30;4.00;99.90
20319;DHT22;10317;47.254;11.314;2023-11-18T01:31:56;4.00;99.90
20319;DHT22;10317;47.254;11.314;2023-11-18T01:34:22;4.00;99.90
20319;DHT22;10317;47.254;11.314;2023-11-18T01:36:49;4.00;99.90
20319;DHT22;10317;47.254;11.314;2023-11-18T01:39:16;4.00;99.90
20319;DHT22;10317;47.254;11.314;2023-11-18T01:41:44;4.00;99.90
20319;DHT22;10317;47.254;11.314;2023-11-18T01:44:10;4.00;99.90
20319;DHT22;10317;47.254;11.314;2023-11-18T01:46:36;4.00;99.90
20319;DHT22;10317;47.254;11.314;2023-11-18T01:49:03;4.00;99.90
20319;DHT22;10317;47.254;11.314;2023-11-18T01:51:30;4.00;99.90
20319;DHT22;10317;47.254;11.314;2023-11-18T01:53:57;4.00;99.90
20319;DHT22;10317;47.254;11.314;2023-11-18T01:56:25;4.00;99.90
20319;DHT22;10317;47.254;11.314;2023-11-18T01:58:52;4.00;99.90
20319;DHT22;10317;47.254;11.314;2023-11-18T02:01:19;4.00;99.90
20319;DHT22;10317;47.254;11.314;2023-11-18T02:03:44;4.10;99.90
20319;DHT22;10317;47.254;11.314;2023-11-18T02:06:10;4.10;99.90
20319;DHT22;10317;47.254;11.314;2023-11-18T02:08:36;4.10;99.90
20319;DHT22;10317;47.254;11.314;2023-11-18T02:13:53;4.20;99.90
20319;DHT22;10317;47.254;11.314;2023-11-18T02:16:20;4.20;99.90
20319;DHT22;10317;47.254;11.314;2023-11-18T02:18:47;4.20;99.90
20319;DHT22;10317;47.254;11.314;2023-11-18T02:21:14;4.20;99.90
20319;DHT22;10317;47.254;11.314;2023-11-18T02:23:41;4.20;99.90
20319;DHT22;10317;47.254;11.314;2023-11-18T02:26:08;4.20;99.90
20319;DHT22;10317;47.254;11.314;2023-11-18T02:28:35;4.20;99.90
20319;DHT22;10317;47.254;11.314;2023-11-18T02:31:07;4.20;99.90
20319;DHT22;10317;47.254;11.314;2023-11-18T02:33:59;4.20;99.90
20319;DHT22;10317;47.254;11.314;2023-11-18T02:36:36;4.20;99.90
20319;DHT22;10317;47.254;11.314;2023-11-18T02:39:08;4.20;99.90
20319;DHT22;10317;47.254;11.314;2023-11-18T02:41:38;4.20;99.90
20319;DHT22;10317;47.254;11.314;2023-11-18T02:44:06;4.20;99.90
20319;DHT22;10317;47.254;11.314;2023-11-18T02:46:36;4.20;99.90
20319;DHT22;10317;47.254;11.314;2023-11-18T02:49:03;4.20;99.90
20319;DHT22;10317;47.254;11.314;2023-11-18T02:51:29;4.30;99.90
20319;DHT22;10317;47.254;11.314;2023-11-18T02:53:57;4.30;99.90
20319;DHT22;10317;47.254;11.314;2023-11-18T02:56:23;4.30;99.90
20319;DHT22;10317;47.254;11.314;2023-11-18T02:58:48;4.30;99.90
20319;DHT22;10317;47.254;11.314;2023-11-18T03:01:14;4.30;99.90
20319;DHT22;10317;47.254;11.314;2023-11-18T03:03:40;4.30;99.90
20319;DHT22;10317;47.254;11.314;2023-11-18T03:06:07;4.30;99.90
20319;DHT22;10317;47.254;11.314;2023-11-18T03:08:33;4.30;99.90
20319;DHT22;10317;47.254;11.314;2023-11-18T03:10:59;4.30;99.90
20319;DHT22;10317;47.254;11.314;2023-11-18T03:13:25;4.30;99.90
20319;DHT22;10317;47.254;11.314;2023-11-18T03:15:51;4.30;99.90
20319;DHT22;10317;47.254;11.314;2023-11-18T03:18:17;4.30;99.90
20319;DHT22;10317;47.254;11.314;2023-11-18T03:20:43;4.30;99.90
20319;DHT22;10317;47.254;11.314;2023-11-18T03:23:08;4.30;99.90
20319;DHT22;10317;47.254;11.314;2023-11-18T03:25:34;4.30;99.90
20319;DHT22;10317;47.254;11.314;2023-11-18T03:28:00;4.30;99.90
20319;DHT22;10317;47.254;11.314;2023-11-18T03:30:26;4.30;99.90
20319;DHT22;10317;47.254;11.314;2023-11-18T03:32:54;4.30;99.90
20319;DHT22;10317;47.254;11.314;2023-11-18T03:35:20;4.30;99.90
20319;DHT22;10317;47.254;11.314;2023-11-18T03:37:46;4.30;99.90
20319;DHT22;10317;47.254;11.314;2023-11-18T03:40:13;4.30;99.90
20319;DHT22;10317;47.254;11.314;2023-11-18T03:42:39;4.30;99.90
20319;DHT22;10317;47.254;11.314;2023-11-18T03:45:06;4.30;99.90
20319;DHT22;10317;47.254;11.314;2023-11-18T03:47:32;4.30;99.90
20319;DHT22;10317;47.254;11.314;2023-11-18T03:49:59;4.30;99.90
20319;DHT22;10317;47.254;11.314;2023-11-18T03:52:25;4.30;99.90
20319;DHT22;10317;47.254;11.314;2023-11-18T03:54:51;4.20;99.90
20319;DHT22;10317;47.254;11.314;2023-11-18T03:57:17;4.30;99.90
20319;DHT22;10317;47.254;11.314;2023-11-18T03:59:42;4.30;99.90
20319;DHT22;10317;47.254;11.314;2023-11-18T04:02:08;4.20;99.90
20319;DHT22;10317;47.254;11.314;2023-11-18T04:04:37;4.20;99.90
20319;DHT22;10317;47.254;11.314;2023-11-18T04:07:03;4.20;99.90
20319;DHT22;10317;47.254;11.314;2023-11-18T04:09:30;4.20;99.90
20319;DHT22;10317;47.254;11.314;2023-11-18T04:11:56;4.30;99.90
20319;DHT22;10317;47.254;11.314;2023-11-18T04:14:21;4.30;99.90
20319;DHT22;10317;47.254;11.314;2023-11-18T04:16:48;4.30;99.90
20319;DHT22;10317;47.254;11.314;2023-11-18T04:19:17;4.30;99.90
20319;DHT22;10317;47.254;11.314;2023-11-18T04:21:43;4.30;99.90
20319;DHT22;10317;47.254;11.314;2023-11-18T04:24:13;4.30;99.90
20319;DHT22;10317;47.254;11.314;2023-11-18T04:26:38;4.30;99.90
20319;DHT22;10317;47.254;11.314;2023-11-18T04:29:04;4.30;99.90
20319;DHT22;10317;47.254;11.314;2023-11-18T04:31:30;4.30;99.90
20319;DHT22;10317;47.254;11.314;2023-11-18T04:33:55;4.30;99.90
20319;DHT22;10317;47.254;11.314;2023-11-18T04:36:21;4.30;99.90
20319;DHT22;10317;47.254;11.314;2023-11-18T04:38:47;4.30;99.90
20319;DHT22;10317;47.254;11.314;2023-11-18T04:41:14;4.30;99.90
20319;DHT22;10317;47.254;11.314;2023-11-18T04:43:40;4.30;99.90
20319;DHT22;10317;47.254;11.314;2023-11-18T04:46:07;4.30;99.90
20319;DHT22;10317;47.254;11.314;2023-11-18T04:48:33;4.30;99.90
20319;DHT22;10317;47.254;11.314;2023-11-18T04:51:00;4.30;99.90
20319;DHT22;10317;47.254;11.314;2023-11-18T04:53:26;4.30;99.90
20319;DHT22;10317;47.254;11.314;2023-11-18T04:55:51;4.30;99.90
20319;DHT22;10317;47.254;11.314;2023-11-18T04:58:18;4.30;99.90
20319;DHT22;10317;47.254;11.314;2023-11-18T05:00:44;4.30;99.90
20319;DHT22;10317;47.254;11.314;2023-11-18T05:03:10;4.30;99.90
20319;DHT22;10317;47.254;11.314;2023-11-18T05:05:39;4.30;99.90
20319;DHT22;10317;47.254;11.314;2023-11-18T05:08:06;4.30;99.90
20319;DHT22;10317;47.254;11.314;2023-11-18T05:10:32;4.30;99.90
20319;DHT22;10317;47.254;11.314;2023-11-18T05:12:58;4.30;99.90
20319;DHT22;10317;47.254;11.314;2023-11-18T05:15:24;4.30;99.90
20319;DHT22;10317;47.254;11.314;2023-11-18T05:17:54;4.30;99.90
20319;DHT22;10317;47.254;11.314;2023-11-18T05:20:20;4.30;99.90
20319;DHT22;10317;47.254;11.314;2023-11-18T05:22:47;4.30;99.90
20319;DHT22;10317;47.254;11.314;2023-11-18T05:25:13;4.30;99.90
20319;DHT22;10317;47.254;11.314;2023-11-18T05:27:39;4.30;99.90
20319;DHT22;10317;47.254;11.314;2023-11-18T05:30:10;4.30;99.90
20319;DHT22;10317;47.254;11.314;2023-11-18T05:32:36;4.30;99.90
20319;DHT22;10317;47.254;11.314;2023-11-18T05:35:03;4.30;99.90
20319;DHT22;10317;47.254;11.314;2023-11-18T05:37:30;4.30;99.90
20319;DHT22;10317;47.254;11.314;2023-11-18T05:40:01;4.30;99.90
20319;DHT22;10317;47.254;11.314;2023-11-18T05:42:33;4.20;99.90
20319;DHT22;10317;47.254;11.314;2023-11-18T05:45:01;4.20;99.90
20319;DHT22;10317;47.254;11.314;2023-11-18T05:47:27;4.20;99.90
20319;DHT22;10317;47.254;11.314;2023-11-18T05:49:53;4.10;99.90
20319;DHT22;10317;47.254;11.314;2023-11-18T05:52:19;4.10;99.90
20319;DHT22;10317;47.254;11.314;2023-11-18T05:54:46;4.10;99.90
20319;DHT22;10317;47.254;11.314;2023-11-18T05:57:14;4.10;99.90
20319;DHT22;10317;47.254;11.314;2023-11-18T05:59:40;4.10;99.90
20319;DHT22;10317;47.254;11.314;2023-11-18T06:02:05;4.10;99.90
20319;DHT22;10317;47.254;11.314;2023-11-18T06:04:31;4.10;99.90
20319;DHT22;10317;47.254;11.314;2023-11-18T06:06:56;4.10;99.90
20319;DHT22;10317;47.254;11.314;2023-11-18T06:09:22;4.10;99.90
20319;DHT22;10317;47.254;11.314;2023-11-18T06:11:51;4.10;99.90
20319;DHT22;10317;47.254;11.314;2023-11-18T06:14:19;4.10;99.90
20319;DHT22;10317;47.254;11.314;2023-11-18T06:16:45;4.00;99.90
20319;DHT22;10317;47.254;11.314;2023-11-18T06:19:11;4.00;99.90
20319;DHT22;10317;47.254;11.314;2023-11-18T06:21:36;4.00;99.90
20319;DHT22;10317;47.254;11.314;2023-11-18T06:24:03;4.00;99.90
20319;DHT22;10317;47.254;11.314;2023-11-18T06:26:32;3.90;99.90
20319;DHT22;10317;47.254;11.314;2023-11-18T06:28:59;4.00;99.90
20319;DHT22;10317;47.254;11.314;2023-11-18T06:31:25;4.00;99.90
20319;DHT22;10317;47.254;11.314;2023-11-18T06:33:50;4.00;99.90
20319;DHT22;10317;47.254;11.314;2023-11-18T06:38:42;3.90;99.90
20319;DHT22;10317;47.254;11.314;2023-11-18T06:41:09;3.90;99.90
20319;DHT22;10317;47.254;11.314;2023-11-18T06:43:38;3.90;99.90
20319;DHT22;10317;47.254;11.314;2023-11-18T06:46:21;4.00;99.90
20319;DHT22;10317;47.254;11.314;2023-11-18T06:48:51;4.00;99.90
20319;DHT22;10317;47.254;11.314;2023-11-18T06:51:23;4.00;99.90
20319;DHT22;10317;47.254;11.314;2023-11-18T06:53:54;4.00;99.90
20319;DHT22;10317;47.254;11.314;2023-11-18T06:56:23;3.90;99.90
20319;DHT22;10317;47.254;11.314;2023-11-18T06:58:49;4.00;99.90
20319;DHT22;10317;47.254;11.314;2023-11-18T07:01:15;4.00;99.90
20319;DHT22;10317;47.254;11.314;2023-11-18T07:03:41;3.90;99.90
20319;DHT22;10317;47.254;11.314;2023-11-18T07:06:08;3.90;99.90
20319;DHT22;10317;47.254;11.314;2023-11-18T07:08:37;3.90;99.90
20319;DHT22;10317;47.254;11.314;2023-11-18T07:11:05;3.90;99.90
20319;DHT22;10317;47.254;11.314;2023-11-18T07:13:32;3.90;99.90
20319;DHT22;10317;47.254;11.314;2023-11-18T07:15:59;3.90;99.90
20319;DHT22;10317;47.254;11.314;2023-11-18T07:18:28;3.90;99.90
20319;DHT22;10317;47.254;11.314;2023-11-18T07:20:56;3.90;99.90
20319;DHT22;10317;47.254;11.314;2023-11-18T07:23:21;3.90;99.90
20319;DHT22;10317;47.254;11.314;2023-11-18T07:25:48;3.80;99.90
20319;DHT22;10317;47.254;11.314;2023-11-18T07:28:13;3.80;99.90
20319;DHT22;10317;47.254;11.314;2023-11-18T07:30:41;3.80;99.90
20319;DHT22;10317;47.254;11.314;2023-11-18T07:33:08;3.80;99.90
20319;DHT22;10317;47.254;11.314;2023-11-18T07:35:35;3.80;99.90
20319;DHT22;10317;47.254;11.314;2023-11-18T07:38:02;3.90;99.90
20319;DHT22;10317;47.254;11.314;2023-11-18T07:40:28;4.00;99.90
20319;DHT22;10317;47.254;11.314;2023-11-18T07:42:54;4.00;99.90
20319;DHT22;10317;47.254;11.314;2023-11-18T07:45:27;4.00;99.90
20319;DHT22;10317;47.254;11.314;2023-11-18T07:47:54;4.00;99.90
20319;DHT22;10317;47.254;11.314;2023-11-18T07:50:20;4.00;99.90
20319;DHT22;10317;47.254;11.314;2023-11-18T07:52:50;4.00;99.90
20319;DHT22;10317;47.254;11.314;2023-11-18T07:55:16;4.00;99.90
20319;DHT22;10317;47.254;11.314;2023-11-18T07:57:42;4.10;99.90
20319;DHT22;10317;47.254;11.314;2023-11-18T08:00:08;4.10;99.90
20319;DHT22;10317;47.254;11.314;2023-11-18T08:02:36;4.10;99.90
20319;DHT22;10317;47.254;11.314;2023-11-18T08:05:02;4.20;99.90
20319;DHT22;10317;47.254;11.314;2023-11-18T08:07:29;4.30;99.90
20319;DHT22;10317;47.254;11.314;2023-11-18T08:09:54;4.40;99.90
20319;DHT22;10317;47.254;11.314;2023-11-18T08:12:20;4.60;99.90
20319;DHT22;10317;47.254;11.314;2023-11-18T08:14:46;4.80;99.90
20319;DHT22;10317;47.254;11.314;2023-11-18T08:17:12;5.00;99.90
20319;DHT22;10317;47.254;11.314;2023-11-18T08:19:39;5.40;99.90
20319;DHT22;10317;47.254;11.314;2023-11-18T08:22:04;5.70;99.90
20319;DHT22;10317;47.254;11.314;2023-11-18T08:24:31;6.00;99.90
20319;DHT22;10317;47.254;11.314;2023-11-18T08:26:59;6.20;99.90
20319;DHT22;10317;47.254;11.314;2023-11-18T08:29:24;6.20;99.90
20319;DHT22;10317;47.254;11.314;2023-11-18T08:31:56;6.30;99.90
20319;DHT22;10317;47.254;11.314;2023-11-18T08:34:22;6.50;99.90
20319;DHT22;10317;47.254;11.314;2023-11-18T08:36:47;6.60;99.90
20319;DHT22;10317;47.254;11.314;2023-11-18T08:39:13;6.80;99.90
20319;DHT22;10317;47.254;11.314;2023-11-18T08:41:41;6.90;99.90
20319;DHT22;10317;47.254;11.314;2023-11-18T08:44:09;7.10;99.90
20319;DHT22;10317;47.254;11.314;2023-11-18T08:46:38;7.10;99.90
20319;DHT22;10317;47.254;11.314;2023-11-18T08:49:04;7.30;99.90
20319;DHT22;10317;47.254;11.314;2023-11-18T08:51:37;7.30;99.90
20319;DHT22;10317;47.254;11.314;2023-11-18T08:54:04;7.30;99.90
20319;DHT22;10317;47.254;11.314;2023-11-18T08:56:51;7.10;99.90
20319;DHT22;10317;47.254;11.314;2023-11-18T08:59:20;6.90;99.90
20319;DHT22;10317;47.254;11.314;2023-11-18T09:01:54;6.60;99.90
20319;DHT22;10317;47.254;11.314;2023-11-18T09:04:28;6.40;99.90
20319;DHT22;10317;47.254;11.314;2023-11-18T09:06:54;6.30;99.90
20319;DHT22;10317;47.254;11.314;2023-11-18T09:09:23;6.20;99.90
20319;DHT22;10317;47.254;11.314;2023-11-18T09:11:56;6.20;99.90
20319;DHT22;10317;47.254;11.314;2023-11-18T09:14:26;6.30;99.90
20319;DHT22;10317;47.254;11.314;2023-11-18T09:16:52;6.40;99.90
20319;DHT22;10317;47.254;11.314;2023-11-18T09:19:20;6.70;99.90
20319;DHT22;10317;47.254;11.314;2023-11-18T09:21:47;6.90;99.90
20319;DHT22;10317;47.254;11.314;2023-11-18T09:24:14;7.10;99.90
20319;DHT22;10317;47.254;11.314;2023-11-18T09:26:41;7.30;99.90
20319;DHT22;10317;47.254;11.314;2023-11-18T09:29:09;7.50;99.90
20319;DHT22;10317;47.254;11.314;2023-11-18T09:31:36;7.60;99.90
20319;DHT22;10317;47.254;11.314;2023-11-18T09:34:03;7.80;99.90
20319;DHT22;10317;47.254;11.314;2023-11-18T09:36:32;8.00;99.90
20319;DHT22;10317;47.254;11.314;2023-11-18T09:38:59;8.70;99.90
20319;DHT22;10317;47.254;11.314;2023-11-18T09:41:25;9.00;99.90
20319;DHT22;10317;47.254;11.314;2023-11-18T09:43:53;9.20;99.90
20319;DHT22;10317;47.254;11.314;2023-11-18T09:46:27;10.20;99.90
20319;DHT22;10317;47.254;11.314;2023-11-18T09:51:38;12.60;99.90
20319;DHT22;10317;47.254;11.314;2023-11-18T10:02:10;11.60;97.70
20319;DHT22;10317;47.254;11.314;2023-11-18T10:04:39;11.40;99.10
20319;DHT22;10317;47.254;11.314;2023-11-18T10:07:08;11.60;98.30
20319;DHT22;10317;47.254;11.314;2023-11-18T10:09:36;12.10;97.00
20319;DHT22;10317;47.254;11.314;2023-11-18T10:12:07;12.90;98.10
20319;DHT22;10317;47.254;11.314;2023-11-18T10:14:37;13.60;94.70
20319;DHT22;10317;47.254;11.314;2023-11-18T10:17:07;14.40;92.60
20319;DHT22;10317;47.254;11.314;2023-11-18T10:22:25;15.70;91.00
20319;DHT22;10317;47.254;11.314;2023-11-18T10:24:52;16.00;88.20
20319;DHT22;10317;47.254;11.314;2023-11-18T10:27:24;16.70;88.30
20319;DHT22;10317;47.254;11.314;2023-11-18T10:29:54;17.20;84.60
20319;DHT22;10317;47.254;11.314;2023-11-18T10:32:21;17.80;83.90
20319;DHT22;10317;47.254;11.314;2023-11-18T10:34:50;18.60;81.00
20319;DHT22;10317;47.254;11.314;2023-11-18T10:37:16;19.80;79.40
20319;DHT22;10317;47.254;11.314;2023-11-18T10:39:47;20.90;75.10
20319;DHT22;10317;47.254;11.314;2023-11-18T10:42:19;21.90;70.60
20319;DHT22;10317;47.254;11.314;2023-11-18T10:44:55;22.70;64.00
20319;DHT22;10317;47.254;11.314;2023-11-18T10:47:26;23.70;61.70
20319;DHT22;10317;47.254;11.314;2023-11-18T10:52:25;24.60;58.10
20319;DHT22;10317;47.254;11.314;2023-11-18T10:55:00;25.00;57.40
20319;DHT22;10317;47.254;11.314;2023-11-18T10:57:32;24.70;53.70
20319;DHT22;10317;47.254;11.314;2023-11-18T11:00:02;24.10;53.60
20319;DHT22;10317;47.254;11.314;2023-11-18T11:02:32;22.90;55.00
20319;DHT22;10317;47.254;11.314;2023-11-18T11:05:05;21.50;56.40
20319;DHT22;10317;47.254;11.314;2023-11-18T11:07:42;21.30;57.20
20319;DHT22;10317;47.254;11.314;2023-11-18T11:10:08;21.40;57.10
20319;DHT22;10317;47.254;11.314;2023-11-18T11:12:49;21.50;55.00
20319;DHT22;10317;47.254;11.314;2023-11-18T11:15:29;21.80;55.30
20319;DHT22;10317;47.254;11.314;2023-11-18T11:18:02;21.90;54.50
20319;DHT22;10317;47.254;11.314;2023-11-18T11:20:41;21.80;55.40
20319;DHT22;10317;47.254;11.314;2023-11-18T11:31:41;20.80;54.20
20319;DHT22;10317;47.254;11.314;2023-11-18T11:34:16;20.50;54.50
20319;DHT22;10317;47.254;11.314;2023-11-18T11:36:47;20.20;54.70
20319;DHT22;10317;47.254;11.314;2023-11-18T11:39:17;19.80;55.80
20319;DHT22;10317;47.254;11.314;2023-11-18T11:41:53;19.10;57.30
20319;DHT22;10317;47.254;11.314;2023-11-18T11:44:22;18.50;58.80
20319;DHT22;10317;47.254;11.314;2023-11-18T11:46:54;18.20;59.40
20319;DHT22;10317;47.254;11.314;2023-11-18T11:49:23;18.00;60.60
20319;DHT22;10317;47.254;11.314;2023-11-18T11:54:38;17.80;60.10
20319;DHT22;10317;47.254;11.314;2023-11-18T11:57:05;17.80;61.10
20319;DHT22;10317;47.254;11.314;2023-11-18T12:02:18;17.40;60.90
20319;DHT22;10317;47.254;11.314;2023-11-18T12:04:50;16.80;61.00
20319;DHT22;10317;47.254;11.314;2023-11-18T12:07:22;16.50;61.80
20319;DHT22;10317;47.254;11.314;2023-11-18T12:09:58;16.20;61.90
20319;DHT22;10317;47.254;11.314;2023-11-18T12:12:26;15.90;62.80
20319;DHT22;10317;47.254;11.314;2023-11-18T12:14:53;15.50;64.50
20319;DHT22;10317;47.254;11.314;2023-11-18T12:17:22;15.30;66.70
20319;DHT22;10317;47.254;11.314;2023-11-18T12:19:49;15.00;65.50
20319;DHT22;10317;47.254;11.314;2023-11-18T12:22:20;14.70;68.00
20319;DHT22;10317;47.254;11.314;2023-11-18T12:35:25;13.40;72.70
20319;DHT22;10317;47.254;11.314;2023-11-18T12:40:57;12.80;73.70
20319;DHT22;10317;47.254;11.314;2023-11-18T12:43:48;12.60;75.10
20319;DHT22;10317;47.254;11.314;2023-11-18T12:48:56;12.00;77.90
20319;DHT22;10317;47.254;11.314;2023-11-18T12:51:24;11.90;78.00
20319;DHT22;10317;47.254;11.314;2023-11-18T12:53:51;11.80;78.00
20319;DHT22;10317;47.254;11.314;2023-11-18T12:56:20;11.80;76.20
20319;DHT22;10317;47.254;11.314;2023-11-18T12:58:46;11.60;81.40
20319;DHT22;10317;47.254;11.314;2023-11-18T13:01:13;11.50;79.30
20319;DHT22;10317;47.254;11.314;2023-11-18T13:03:40;11.50;78.20
20319;DHT22;10317;47.254;11.314;2023-11-18T13:06:10;11.40;78.10
20319;DHT22;10317;47.254;11.314;2023-11-18T13:08:38;11.30;79.00
20319;DHT22;10317;47.254;11.314;2023-11-18T13:11:04;11.20;77.20
20319;DHT22;10317;47.254;11.314;2023-11-18T13:13:34;11.10;79.50
20319;DHT22;10317;47.254;11.314;2023-11-18T13:16:00;10.90;81.40
20319;DHT22;10317;47.254;11.314;2023-11-18T13:18:27;10.60;82.70
20319;DHT22;10317;47.254;11.314;2023-11-18T13:20:55;10.30;82.60
20319;DHT22;10317;47.254;11.314;2023-11-18T13:23:24;10.30;82.60
20319;DHT22;10317;47.254;11.314;2023-11-18T13:25:53;10.10;86.00
20319;DHT22;10317;47.254;11.314;2023-11-18T13:28:22;9.80;88.70
20319;DHT22;10317;47.254;11.314;2023-11-18T13:30:49;9.70;88.30
20319;DHT22;10317;47.254;11.314;2023-11-18T13:33:15;9.50;89.80
20319;DHT22;10317;47.254;11.314;2023-11-18T13:35:42;9.40;89.30
20319;DHT22;10317;47.254;11.314;2023-11-18T13:38:08;9.20;91.10
20319;DHT22;10317;47.254;11.314;2023-11-18T13:40:44;9.10;91.60
20319;DHT22;10317;47.254;11.314;2023-11-18T13:43:10;9.10;90.40
20319;DHT22;10317;47.254;11.314;2023-11-18T13:45:36;9.10;90.90
20319;DHT22;10317;47.254;11.314;2023-11-18T13:48:04;9.10;92.70
20319;DHT22;10317;47.254;11.314;2023-11-18T13:50:30;9.00;92.80
20319;DHT22;10317;47.254;11.314;2023-11-18T13:52:56;8.90;93.20
20319;DHT22;10317;47.254;11.314;2023-11-18T13:55:24;8.70;94.00
20319;DHT22;10317;47.254;11.314;2023-11-18T13:57:56;8.60;94.20
20319;DHT22;10317;47.254;11.314;2023-11-18T14:00:27;8.60;94.30
20319;DHT22;10317;47.254;11.314;2023-11-18T14:02:54;8.50;96.00
20319;DHT22;10317;47.254;11.314;2023-11-18T14:05:22;8.40;95.10
20319;DHT22;10317;47.254;11.314;2023-11-18T14:07:51;8.40;95.30
20319;DHT22;10317;47.254;11.314;2023-11-18T14:10:17;8.30;96.40
20319;DHT22;10317;47.254;11.314;2023-11-18T14:13:04;8.10;96.00
20319;DHT22;10317;47.254;11.314;2023-11-18T14:15:37;8.00;96.50
20319;DHT22;10317;47.254;11.314;2023-11-18T14:18:05;7.90;97.00
20319;DHT22;10317;47.254;11.314;2023-11-18T14:20:35;7.80;96.80
20319;DHT22;10317;47.254;11.314;2023-11-18T14:23:01;7.70;97.70
20319;DHT22;10317;47.254;11.314;2023-11-18T14:25:29;7.70;97.60
20319;DHT22;10317;47.254;11.314;2023-11-18T14:27:55;7.60;97.80
20319;DHT22;10317;47.254;11.314;2023-11-18T14:30:21;7.60;98.40
20319;DHT22;10317;47.254;11.314;2023-11-18T14:32:50;7.40;98.70
20319;DHT22;10317;47.254;11.314;2023-11-18T14:35:16;7.40;98.80
20319;DHT22;10317;47.254;11.314;2023-11-18T14:37:45;7.40;99.50
20319;DHT22;10317;47.254;11.314;2023-11-18T14:40:12;7.40;99.80
20319;DHT22;10317;47.254;11.314;2023-11-18T14:42:50;7.20;99.90
20319;DHT22;10317;47.254;11.314;2023-11-18T14:45:17;7.20;99.90
20319;DHT22;10317;47.254;11.314;2023-11-18T14:47:44;7.10;99.90
20319;DHT22;10317;47.254;11.314;2023-11-18T14:50:11;7.10;99.90
20319;DHT22;10317;47.254;11.314;2023-11-18T14:52:50;7.10;99.90
20319;DHT22;10317;47.254;11.314;2023-11-18T14:55:17;7.10;99.90
20319;DHT22;10317;47.254;11.314;2023-11-18T14:57:46;7.10;99.90
20319;DHT22;10317;47.254;11.314;2023-11-18T15:00:12;7.00;99.90
20319;DHT22;10317;47.254;11.314;2023-11-18T15:02:49;7.00;99.90
20319;DHT22;10317;47.254;11.314;2023-11-18T15:05:16;6.90;99.90
20319;DHT22;10317;47.254;11.314;2023-11-18T15:07:49;6.80;99.90
20319;DHT22;10317;47.254;11.314;2023-11-18T15:10:20;6.70;99.90
20319;DHT22;10317;47.254;11.314;2023-11-18T15:12:57;6.60;99.90
20319;DHT22;10317;47.254;11.314;2023-11-18T15:15:28;6.50;99.90
20319;DHT22;10317;47.254;11.314;2023-11-18T15:18:04;6.40;99.90
20319;DHT22;10317;47.254;11.314;2023-11-18T15:20:32;6.40;99.90
20319;DHT22;10317;47.254;11.314;2023-11-18T15:22:57;6.30;99.90
20319;DHT22;10317;47.254;11.314;2023-11-18T15:25:23;6.20;99.90
20319;DHT22;10317;47.254;11.314;2023-11-18T15:27:49;6.20;99.90
20319;DHT22;10317;47.254;11.314;2023-11-18T15:30:16;6.00;99.90
20319;DHT22;10317;47.254;11.314;2023-11-18T15:32:46;5.90;99.90
20319;DHT22;10317;47.254;11.314;2023-11-18T15:35:13;5.90;99.90
20319;DHT22;10317;47.254;11.314;2023-11-18T15:37:43;5.80;99.90
20319;DHT22;10317;47.254;11.314;2023-11-18T15:40:12;5.80;99.90
20319;DHT22;10317;47.254;11.314;2023-11-18T15:42:43;5.70;99.90
20319;DHT22;10317;47.254;11.314;2023-11-18T15:45:13;5.70;99.90
20319;DHT22;10317;47.254;11.314;2023-11-18T15:47:41;5.70;99.90
20319;DHT22;10317;47.254;11.314;2023-11-18T15:50:12;5.70;99.90
20319;DHT22;10317;47.254;11.314;2023-11-18T15:52:42;5.70;99.90
20319;DHT22;10317;47.254;11.314;2023-11-18T15:55:08;5.70;99.90
20319;DHT22;10317;47.254;11.314;2023-11-18T15:57:43;5.70;99.90
20319;DHT22;10317;47.254;11.314;2023-11-18T16:00:11;5.70;99.90
20319;DHT22;10317;47.254;11.314;2023-11-18T16:02:46;5.60;99.90
20319;DHT22;10317;47.254;11.314;2023-11-18T16:05:18;5.60;99.90
20319;DHT22;10317;47.254;11.314;2023-11-18T16:07:48;5.70;99.90
20319;DHT22;10317;47.254;11.314;2023-11-18T16:10:17;5.70;99.90
20319;DHT22;10317;47.254;11.314;2023-11-18T16:12:45;5.60;99.90
20319;DHT22;10317;47.254;11.314;2023-11-18T16:15:17;5.60;99.90
20319;DHT22;10317;47.254;11.314;2023-11-18T16:17:45;5.60;99.90
20319;DHT22;10317;47.254;11.314;2023-11-18T16:20:12;5.60;99.90
20319;DHT22;10317;47.254;11.314;2023-11-18T16:22:47;5.60;99.90
20319;DHT22;10317;47.254;11.314;2023-11-18T16:25:15;5.60;99.90